Time;durP1;ratioP1;P1;durP2;ratioP2;P2;SDS_P1;SDS_P2;PMS_P1;PMS_P2;Temp;Humidity;BMP_temperature;BMP_pressure;BME280_temperature;BME280_humidity;BME280_pressure;Samples;Min_cycle;Max_cycle;Signal;HPM_P1;HPM_P2
2023/04/05 00:02:17;;;;;;;15.65;10.88;;;;;;;4.29;90.21;97231.03;10391636;28;20024;-49
2023/04/05 00:07:17;;;;;;;17.90;11.30;;;;;;;4.25;90.74;97227.56;10374675;28;20105;-50
2023/04/05 00:12:16;;;;;;;14.02;9.80;;;;;;;4.30;90.70;97222.50;10358655;28;20152;-49
2023/04/05 00:17:16;;;;;;;12.32;8.80;;;;;;;4.11;90.66;97167.44;10347064;28;20102;-52
2023/04/05 00:22:19;;;;;;;13.10;8.75;;;;;;;4.28;90.22;97204.47;10342983;28;20128;-51
2023/04/05 00:27:18;;;;;;;13.23;9.40;;;;;;;4.34;90.15;97218.25;10348004;28;20519;-51
2023/04/05 00:32:16;;;;;;;13.30;8.52;;;;;;;2.07;89.89;96849.69;10362507;28;20152;-52
2023/04/05 00:37:18;;;;;;;12.57;9.15;;;;;;;4.36;90.03;97214.00;10363736;28;20032;-50
2023/04/05 00:42:17;;;;;;;13.88;9.48;;;;;;;4.38;90.22;97215.75;10354474;28;20476;-51
2023/04/05 00:47:16;;;;;;;13.95;9.23;;;;;;;4.36;90.06;97221.72;10339591;28;20649;-51
2023/04/05 00:52:18;;;;;;;12.52;8.63;;;;;;;4.43;89.90;97213.25;10358436;28;20112;-52
2023/04/05 00:57:17;;;;;;;13.73;8.98;;;;;;;4.45;89.75;97212.44;10359836;28;20224;-50
2023/04/05 01:02:31;;;;;;;15.70;10.35;;;;;;;4.40;88.96;97210.66;10400916;28;20021;-50
2023/04/05 01:07:39;;;;;;;13.13;9.65;;;;;;;4.43;88.21;97215.81;10405593;28;20051;-49
2023/04/05 01:12:39;;;;;;;10.85;7.60;;;;;;;4.46;88.39;97215.88;10405392;28;20071;-52
2023/04/05 01:17:38;;;;;;;10.95;7.28;;;;;;;4.45;87.08;97211.56;10405053;28;20128;-51
2023/04/05 01:23:05;;;;;;;15.70;10.05;;;;;;;4.45;85.44;97204.72;10410213;28;20867;-51
2023/04/05 01:28:38;;;;;;;16.20;10.25;;;;;;;4.43;85.26;97208.09;10384434;28;20079;-51
2023/04/05 01:33:39;;;;;;;20.42;13.63;;;;;;;4.37;86.21;97202.91;10372197;28;20502;-51
2023/04/05 01:38:42;;;;;;;12.75;9.05;;;;;;;3.76;86.93;97149.78;10372159;28;20067;-49
2023/04/05 01:43:41;;;;;;;20.00;13.00;;;;;;;3.04;87.23;97071.63;10371401;28;20064;-51
2023/04/05 01:48:40;;;;;;;15.23;10.32;;;;;;;3.94;88.33;97212.50;10371661;28;20028;-51
2023/04/05 01:53:39;;;;;;;12.45;8.50;;;;;;;3.70;88.06;97220.66;10371493;28;20088;-49
2023/04/05 01:58:38;;;;;;;9.95;6.93;;;;;;;3.36;88.58;97212.38;10370725;28;20049;-51
2023/04/05 02:03:37;;;;;;;11.77;7.88;;;;;;;3.11;90.04;97224.72;10369919;28;20064;-51
2023/04/05 02:08:36;;;;;;;14.35;9.57;;;;;;;3.23;89.93;97217.25;10371006;28;20128;-50
2023/04/05 02:13:35;;;;;;;12.63;8.10;;;;;;;3.43;91.71;97222.75;10370485;28;20125;-51
2023/04/05 02:18:37;;;;;;;14.13;10.43;;;;;;;3.65;90.86;97218.00;10369992;28;20105;-51
2023/04/05 02:23:36;;;;;;;15.93;11.55;;;;;;;3.70;89.12;97224.06;10370558;28;20463;-51
2023/04/05 02:28:35;;;;;;;14.27;9.10;;;;;;;3.77;88.95;97213.09;10397975;28;20067;-49
2023/04/05 02:33:34;;;;;;;13.07;8.23;;;;;;;3.87;89.36;97219.25;10411308;28;20103;-50
2023/04/05 02:38:34;;;;;;;12.38;8.32;;;;;;;4.00;90.54;97210.03;10412961;28;20115;-53
2023/04/05 02:43:34;;;;;;;13.43;9.43;;;;;;;4.12;89.16;97207.66;10412879;28;20074;-50
2023/04/05 02:48:33;;;;;;;13.43;9.20;;;;;;;4.21;89.12;97205.22;10413925;28;20487;-51
2023/04/05 02:53:32;;;;;;;16.77;9.32;;;;;;;4.25;89.46;97217.28;10412730;28;20582;-51
2023/04/05 02:58:31;;;;;;;13.18;8.52;;;;;;;4.09;89.00;97181.94;10412084;28;20485;-49
2023/04/05 03:03:30;;;;;;;14.73;9.80;;;;;;;4.29;88.04;97208.78;10412435;28;20099;-52
2023/04/05 03:08:31;;;;;;;11.30;8.07;;;;;;;4.28;87.82;97213.91;10371913;28;20037;-52
2023/04/05 03:13:30;;;;;;;14.63;9.63;;;;;;;4.06;85.09;97202.44;10370507;28;20088;-51
2023/04/05 03:18:29;;;;;;;12.27;9.13;;;;;;;3.94;85.97;97222.75;10371045;28;20041;-49
2023/04/05 03:23:30;;;;;;;13.50;9.73;;;;;;;3.86;85.79;97210.66;10370773;28;20071;-49
2023/04/05 03:28:31;;;;;;;15.70;11.30;;;;;;;3.82;87.49;97208.03;10399996;28;20072;-50
2023/04/05 03:33:30;;;;;;;16.45;10.75;;;;;;;3.82;88.55;97205.47;10408630;28;20076;-52
2023/04/05 03:38:31;;;;;;;19.17;12.57;;;;;;;3.77;88.14;97215.66;10403795;28;20514;-50
2023/04/05 03:43:30;;;;;;;17.95;11.52;;;;;;;3.79;88.48;97210.56;10403907;28;20080;-50
2023/04/05 03:48:29;;;;;;;16.27;11.18;;;;;;;3.76;88.40;97213.94;10404805;28;20028;-50
2023/04/05 03:53:28;;;;;;;23.88;14.48;;;;;;;3.71;88.50;97236.09;10405061;28;20548;-52
2023/04/05 03:58:27;;;;;;;15.13;9.73;;;;;;;3.48;90.75;97222.00;10406865;28;20116;-50
2023/04/05 04:03:29;;;;;;;15.90;10.93;;;;;;;3.49;91.36;97226.28;10364947;28;20497;-49
2023/04/05 04:08:28;;;;;;;18.27;12.90;;;;;;;3.68;92.33;97225.75;10365270;28;20056;-49
2023/04/05 04:13:27;;;;;;;18.05;12.35;;;;;;;3.88;92.32;97233.81;10379325;28;20058;-52
2023/04/05 04:18:26;;;;;;;24.35;14.63;;;;;;;4.03;90.74;97233.19;10447867;28;20051;-50
2023/04/05 04:23:26;;;;;;;17.27;11.43;;;;;;;4.10;91.27;97229.88;10447399;28;20479;-52
2023/04/05 04:28:26;;;;;;;22.92;14.50;;;;;;;4.03;90.04;97222.91;10414712;28;20502;-49
2023/04/05 04:33:25;;;;;;;47.72;33.20;;;;;;;4.15;90.07;97243.69;10401913;28;20498;-52
2023/04/05 04:38:25;;;;;;;20.40;14.73;;;;;;;4.20;90.58;97231.78;10425225;28;20063;-52
2023/04/05 04:43:27;;;;;;;17.83;11.75;;;;;;;4.05;89.39;97205.84;10416532;28;20082;-52
2023/04/05 04:48:26;;;;;;;17.15;11.18;;;;;;;4.36;89.47;97238.00;10419248;28;20100;-49
2023/04/05 04:53:25;;;;;;;18.13;11.85;;;;;;;4.41;90.45;97235.50;10416733;28;20063;-52
2023/04/05 04:58:24;;;;;;;19.00;11.85;;;;;;;4.50;89.77;97245.91;10446552;28;20032;-49
2023/04/05 05:03:22;;;;;;;17.10;11.95;;;;;;;4.58;89.67;97243.47;10433237;28;20048;-52
2023/04/05 05:08:21;;;;;;;16.88;11.70;;;;;;;4.75;89.47;97246.25;10409813;28;20119;-52
2023/04/05 05:13:21;;;;;;;22.13;12.88;;;;;;;4.92;89.30;97249.91;10400299;28;20028;-49
2023/04/05 05:18:20;;;;;;;;;;;;;;;5.12;89.14;97245.91;10401417;28;20127;-49
2023/04/05 05:23:20;;;;;;;19.15;12.57;;;;;;;5.29;88.69;97243.53;10404866;28;19926;-50
2023/04/05 05:28:19;;;;;;;20.42;13.40;;;;;;;5.42;88.09;97256.56;10399317;28;20140;-51
2023/04/05 05:33:17;;;;;;;21.30;14.15;;;;;;;5.40;86.12;97248.81;10403679;28;20024;-49
2023/04/05 05:38:17;;;;;;;18.77;13.45;;;;;;;5.52;87.10;97254.09;10404452;28;20028;-50
2023/04/05 05:43:16;;;;;;;18.42;11.80;;;;;;;5.45;81.71;97246.28;10429419;28;20068;-50
2023/04/05 05:48:15;;;;;;;20.77;13.02;;;;;;;5.33;81.47;97247.03;10405427;28;20115;-51
2023/04/05 05:53:15;;;;;;;23.25;14.77;;;;;;;5.11;83.11;97228.78;10432289;28;20043;-51
2023/04/05 05:58:14;;;;;;;21.30;13.93;;;;;;;5.29;83.04;97253.81;10407064;28;20454;-50
2023/04/05 06:03:13;;;;;;;23.33;16.10;;;;;;;5.48;84.03;97248.91;10406520;28;20063;-50
2023/04/05 06:08:12;;;;;;;23.30;16.80;;;;;;;5.60;84.17;97251.59;10420749;28;20433;-51
2023/04/05 06:13:11;;;;;;;26.65;18.23;;;;;;;5.74;84.24;97249.16;10405753;28;20028;-50
2023/04/05 06:18:10;;;;;;;31.10;19.67;;;;;;;6.07;85.35;97256.34;10407947;28;20036;-50
2023/04/05 06:23:10;;;;;;;30.70;21.83;;;;;;;6.08;79.30;97236.59;10428349;28;20120;-52
2023/04/05 06:28:09;;;;;;;28.75;20.38;;;;;;;6.27;81.54;97253.94;10407225;28;20083;-50
2023/04/05 06:33:08;;;;;;;25.20;17.40;;;;;;;6.35;77.43;97254.88;10409396;28;20154;-51
2023/04/05 06:38:07;;;;;;;33.03;22.45;;;;;;;6.26;76.93;97269.38;10410880;28;20048;-50
2023/04/05 06:43:06;;;;;;;37.83;25.60;;;;;;;6.48;76.93;97270.41;10405405;28;20048;-49
2023/04/05 06:48:06;;;;;;;41.33;28.25;;;;;;;6.61;78.36;97269.66;10406576;28;20127;-50
2023/04/05 06:53:06;;;;;;;26.02;17.63;;;;;;;6.52;75.18;97267.88;10405321;28;20179;-51
2023/04/05 06:58:05;;;;;;;29.52;20.55;;;;;;;6.14;75.24;97280.44;10412668;28;20147;-51
2023/04/05 07:03:05;;;;;;;25.60;17.70;;;;;;;6.28;75.89;97280.56;10408681;28;20032;-52
2023/04/05 07:08:04;;;;;;;26.58;19.48;;;;;;;6.67;76.04;97294.59;10413416;28;20111;-52
2023/04/05 07:13:03;;;;;;;24.77;16.70;;;;;;;6.88;73.80;97296.47;10418592;28;20083;-52
2023/04/05 07:18:02;;;;;;;26.70;18.92;;;;;;;7.12;73.25;97295.72;10426585;28;20051;-52
2023/04/05 07:23:01;;;;;;;24.33;17.80;;;;;;;7.37;73.99;97300.16;10412404;28;20042;-53
2023/04/05 07:28:00;;;;;;;92.45;59.33;;;;;;;7.71;68.21;97296.84;10420544;28;20076;-52
2023/04/05 07:32:59;;;;;;;20.45;15.25;;;;;;;8.11;74.09;97297.84;10419203;28;20060;-51
2023/04/05 07:37:58;;;;;;;19.63;14.45;;;;;;;8.60;65.07;97304.72;10417034;28;20041;-52
2023/04/05 07:42:57;;;;;;;15.10;11.73;;;;;;;8.78;64.55;97314.22;10408649;28;20123;-52
2023/04/05 07:47:56;;;;;;;26.50;19.20;;;;;;;9.08;63.85;97310.72;10407297;28;20059;-52
2023/04/05 07:52:55;;;;;;;18.73;8.63;;;;;;;9.42;70.04;97318.41;10410452;28;20115;-52
2023/04/05 07:57:54;;;;;;;12.35;8.38;;;;;;;9.34;63.07;97267.50;10415844;28;20063;-52
2023/04/05 08:02:52;;;;;;;10.63;8.00;;;;;;;9.63;61.67;97315.75;10406444;28;20093;-52
2023/04/05 08:07:53;;;;;;;14.82;11.02;;;;;;;9.28;56.82;97321.03;10412164;28;20577;-52
2023/04/05 08:12:53;;;;;;;15.50;10.15;;;;;;;9.26;58.81;97320.16;10405249;28;20136;-52
2023/04/05 08:17:52;;;;;;;13.20;9.90;;;;;;;8.85;55.24;97314.19;10405757;28;20135;-52
2023/04/05 08:22:50;;;;;;;13.30;9.25;;;;;;;8.74;60.19;97328.88;10405281;28;20113;-51
2023/04/05 08:27:49;;;;;;;10.40;7.20;;;;;;;9.13;60.36;97330.53;10404870;28;20124;-52
2023/04/05 08:32:48;;;;;;;6.38;5.00;;;;;;;9.64;58.76;97322.63;10387657;28;20064;-52
2023/04/05 08:37:47;;;;;;;6.53;5.45;;;;;;;9.97;55.63;97320.75;10406145;28;20115;-52
2023/04/05 08:43:02;;;;;;;6.80;5.20;;;;;;;10.21;57.60;97332.69;10411720;28;20120;-52
2023/04/05 08:48:01;;;;;;;8.25;6.28;;;;;;;10.35;55.91;97324.84;10414575;28;20127;-51
2023/04/05 08:53:00;;;;;;;10.43;7.05;;;;;;;10.31;55.03;97324.00;10401266;28;20064;-52
2023/04/05 08:58:03;;;;;;;10.23;6.95;;;;;;;10.10;56.24;97321.56;10423834;28;20139;-52
2023/04/05 09:03:03;;;;;;;9.70;7.28;;;;;;;10.17;56.39;97339.66;10415779;28;20111;-51
2023/04/05 09:08:02;;;;;;;8.75;5.93;;;;;;;9.83;53.13;97341.56;10414275;28;20522;-52
2023/04/05 09:13:02;;;;;;;8.55;5.47;;;;;;;9.35;54.36;97346.06;10404714;28;20479;-52
2023/04/05 09:18:01;;;;;;;8.07;6.32;;;;;;;9.77;59.34;97347.63;10416211;28;20068;-52
2023/04/05 09:23:00;;;;;;;7.65;6.25;;;;;;;10.31;58.06;97351.69;10420287;28;20064;-52
2023/04/05 09:27:59;;;;;;;6.97;5.68;;;;;;;10.51;56.59;97349.78;10403745;28;20052;-52
2023/04/05 09:32:58;;;;;;;6.97;5.60;;;;;;;10.68;58.14;97351.41;10404371;28;20480;-52
2023/04/05 09:37:59;;;;;;;6.28;4.85;;;;;;;11.11;56.27;97356.25;10404514;28;20410;-52
2023/04/05 09:42:58;;;;;;;6.93;5.68;;;;;;;11.30;54.58;97355.19;10440442;28;20143;-51
2023/04/05 09:47:57;;;;;;;8.77;6.93;;;;;;;10.99;53.90;97350.31;10415158;28;20072;-50
2023/04/05 09:53:06;;;;;;;;;;;;;;;11.18;54.03;97355.31;10422217;28;20039;-51
2023/04/05 09:58:18;;;;;;;5.40;4.35;;;;;;;11.21;51.29;97342.31;10426514;28;19960;-51
2023/04/05 10:03:16;;;;;;;4.35;3.95;;;;;;;11.73;50.01;97336.50;10418477;28;20115;-52
2023/04/05 10:08:15;;;;;;;5.68;4.70;;;;;;;11.94;48.61;97334.53;10414255;28;20047;-51
2023/04/05 10:13:15;;;;;;;8.32;5.45;;;;;;;11.43;50.55;97323.03;10411700;28;20794;-52
2023/04/05 10:18:20;;;;;;;4.38;3.83;;;;;;;11.89;46.50;97335.44;10412050;28;20090;-53
2023/04/05 10:23:27;;;;;;;4.18;3.60;;;;;;;11.81;45.53;97333.84;10408057;28;20143;-51
2023/04/05 10:28:34;;;;;;;7.53;4.10;;;;;;;11.75;48.58;97324.34;10407674;28;20194;-50
2023/04/05 10:33:43;;;;;;;4.95;3.85;;;;;;;12.40;49.09;97321.75;10423967;28;20119;-52
2023/04/05 10:39:03;;;;;;;6.27;4.10;;;;;;;12.55;47.51;97322.41;10398024;28;20696;-51
2023/04/05 10:44:04;;;;;;;5.57;4.15;;;;;;;12.57;46.38;97312.81;10407563;28;20115;-53
2023/04/05 10:49:15;;;;;;;3.60;3.30;;;;;;;12.94;44.33;97313.94;10408435;28;20552;-53
2023/04/05 10:54:16;;;;;;;6.03;3.97;;;;;;;12.65;44.22;97308.34;10420209;28;20078;-53
2023/04/05 10:59:16;;;;;;;4.15;3.47;;;;;;;12.63;41.85;97300.56;10420219;28;20512;-52
2023/04/05 11:04:16;;;;;;;9.32;6.55;;;;;;;12.05;43.20;97306.63;10410036;28;20056;-52
2023/04/05 11:09:17;;;;;;;4.20;3.80;;;;;;;12.15;44.88;97313.41;10409218;28;20119;-52
2023/04/05 11:14:26;;;;;;;12.80;11.45;;;;;;;12.19;45.18;97316.84;10409063;28;20067;-52
2023/04/05 11:19:48;;;;;;;9.33;7.60;;;;;;;11.95;47.54;97315.47;10408929;28;20438;-52
2023/04/05 11:24:53;;;;;;;5.68;4.70;;;;;;;11.86;45.84;97316.44;10400537;28;20464;-52
2023/04/05 11:29:53;;;;;;;4.45;4.05;;;;;;;11.78;48.89;97303.53;10408241;28;20079;-52
2023/04/05 11:35:03;;;;;;;4.35;3.50;;;;;;;12.04;47.67;97320.50;10411109;28;20060;-52
2023/04/05 11:40:25;;;;;;;6.53;3.50;;;;;;;11.83;45.88;97321.66;10411147;28;20067;-52
2023/04/05 11:45:25;;;;;;;5.18;3.45;;;;;;;11.88;46.60;97331.13;10409961;28;20068;-53
2023/04/05 11:50:25;;;;;;;8.10;5.22;;;;;;;12.05;45.28;97324.84;10410339;28;21535;-53
2023/04/05 11:55:27;;;;;;;16.20;11.82;;;;;;;10.61;43.08;97291.78;10410878;28;20059;-52
2023/04/05 12:00:26;;;;;;;5.00;3.42;;;;;;;10.67;46.42;97329.78;10425425;28;20074;-52
2023/04/05 12:05:25;;;;;;;5.32;3.65;;;;;;;10.65;46.91;97326.34;10408938;28;20045;-53
2023/04/05 12:10:24;;;;;;;4.40;3.67;;;;;;;10.61;49.44;97299.56;10410432;28;20414;-52
2023/04/05 12:15:23;;;;;;;6.60;4.82;;;;;;;10.70;48.90;97323.69;10408091;28;20143;-53
2023/04/05 12:20:23;;;;;;;6.13;4.15;;;;;;;10.77;47.67;97325.38;10408730;28;20028;-53
2023/04/05 12:25:23;;;;;;;5.90;4.80;;;;;;;10.17;48.91;97329.28;10427341;28;20072;-53
2023/04/05 12:30:22;;;;;;;8.60;7.70;;;;;;;10.07;46.87;97332.78;10407975;28;20091;-53
2023/04/05 12:35:23;;;;;;;;;;;;;;;9.78;48.13;97331.22;10405935;28;20068;-52
2023/04/05 12:40:23;;;;;;;6.50;5.65;;;;;;;9.48;48.05;97329.59;10404304;28;19971;-52
2023/04/05 12:45:22;;;;;;;5.78;4.63;;;;;;;9.21;50.36;97296.88;10421537;28;20091;-53
2023/04/05 12:50:29;;;;;;;6.10;4.68;;;;;;;9.62;50.57;97329.56;10405029;28;21504;-53
2023/04/05 12:55:29;;;;;;;5.80;4.10;;;;;;;9.66;48.43;97331.28;10425596;28;20072;-52
2023/04/05 13:00:29;;;;;;;10.27;5.30;;;;;;;9.70;49.04;97327.81;10400424;28;20075;-53
2023/04/05 13:05:29;;;;;;;4.85;4.07;;;;;;;9.77;47.10;97308.78;10398692;28;20681;-52
2023/04/05 13:10:28;;;;;;;5.00;3.20;;;;;;;9.99;48.54;97329.38;10400967;28;20071;-51
2023/04/05 13:15:27;;;;;;;9.20;5.35;;;;;;;10.05;47.24;97329.38;10402405;28;20033;-52
2023/04/05 13:20:26;;;;;;;24.02;10.88;;;;;;;9.80;47.15;97296.66;10400853;28;20554;-52
2023/04/05 13:25:25;;;;;;;11.80;9.38;;;;;;;9.61;47.35;97325.25;10403926;28;20550;-53
2023/04/05 13:30:24;;;;;;;5.53;4.53;;;;;;;9.18;48.06;97342.59;10363229;28;1117598;-52
2023/04/05 13:35:23;;;;;;;12.60;8.10;;;;;;;8.15;51.92;97319.34;10424005;28;20060;-52
2023/04/05 13:40:22;;;;;;;10.60;8.63;;;;;;;8.03;54.42;97339.13;10423856;28;20055;-52
2023/04/05 13:45:21;;;;;;;;;;;;;;;8.01;55.43;97343.47;10416338;28;20055;-52
2023/04/05 13:50:20;;;;;;;14.80;9.40;;;;;;;7.82;57.43;97346.84;10403621;28;19920;-53
2023/04/05 13:55:19;;;;;;;11.23;7.07;;;;;;;7.64;59.07;97350.25;10403079;28;20115;-51
2023/04/05 14:00:18;;;;;;;16.90;11.70;;;;;;;7.38;60.61;97352.63;10441293;28;20076;-54
2023/04/05 14:05:17;;;;;;;11.45;7.70;;;;;;;6.76;60.75;97271.47;10404052;28;20454;-53
2023/04/05 14:10:18;;;;;;;13.07;8.68;;;;;;;7.23;61.57;97350.84;10403277;28;20064;-52
2023/04/05 14:15:17;;;;;;;12.77;8.60;;;;;;;7.15;61.96;97353.41;10403157;28;20060;-52
2023/04/05 14:20:16;;;;;;;10.35;6.72;;;;;;;6.65;61.39;97360.75;10401884;28;20045;-53
2023/04/05 14:25:15;;;;;;;10.00;6.78;;;;;;;6.38;62.38;97341.66;10403597;28;20064;-52
2023/04/05 14:30:15;;;;;;;9.00;6.47;;;;;;;6.67;62.67;97364.22;10405796;28;20494;-52
2023/04/05 14:35:14;;;;;;;15.40;9.40;;;;;;;6.74;61.43;97366.00;10411654;28;20067;-52
2023/04/05 14:40:13;;;;;;;;;;;;;;;6.67;60.51;97372.81;10434486;28;20059;-52
2023/04/05 14:45:12;;;;;;;7.47;4.65;;;;;;;6.67;60.83;97375.38;10416579;28;19931;-51
2023/04/05 14:50:11;;;;;;;6.75;4.47;;;;;;;6.52;61.81;97380.44;10412620;28;20162;-53
2023/04/05 14:55:12;;;;;;;10.73;5.93;;;;;;;6.47;60.80;97389.81;10423980;28;20028;-52
2023/04/05 15:00:12;;;;;;;8.52;5.65;;;;;;;6.36;60.44;97331.31;10414497;28;20119;-53
2023/04/05 15:05:11;;;;;;;7.13;5.05;;;;;;;6.60;60.09;97373.63;10412372;28;20063;-52
2023/04/05 15:10:10;;;;;;;10.43;6.38;;;;;;;7.15;59.43;97378.34;10404671;28;20074;-52
2023/04/05 15:15:09;;;;;;;9.57;7.03;;;;;;;7.25;53.64;97380.13;10415764;28;20474;-53
2023/04/05 15:20:09;;;;;;;8.07;6.65;;;;;;;7.49;52.86;97384.56;10430769;28;20078;-52
2023/04/05 15:25:08;;;;;;;;;;;;;;;7.68;51.56;97390.69;10417652;28;20071;-53
2023/04/05 15:30:08;;;;;;;9.90;7.53;;;;;;;7.58;50.82;97387.19;10434985;28;19951;-52
2023/04/05 15:35:07;;;;;;;10.65;7.00;;;;;;;7.50;50.52;97380.25;10410696;28;20060;-53
2023/04/05 15:40:06;;;;;;;10.05;8.38;;;;;;;7.37;49.77;97395.66;10414378;28;20071;-53
2023/04/05 15:45:06;;;;;;;9.52;7.85;;;;;;;7.51;49.64;97398.34;10405961;28;20730;-52
2023/04/05 15:50:06;;;;;;;9.57;8.00;;;;;;;7.49;50.27;97399.22;10420670;28;20091;-52
2023/04/05 15:55:05;;;;;;;12.60;8.80;;;;;;;7.34;49.05;97402.53;10421325;28;20068;-53
2023/04/05 16:00:05;;;;;;;;;;;;;;;7.28;49.72;97411.09;10399228;28;20071;-53
2023/04/05 16:05:04;;;;;;;11.63;8.45;;;;;;;7.28;50.21;97405.94;10404634;28;20031;-52
2023/04/05 16:10:04;;;;;;;8.50;6.90;;;;;;;7.21;49.50;97405.03;10399708;28;20052;-52
2023/04/05 16:15:03;;;;;;;11.82;7.95;;;;;;;7.04;49.71;97404.06;10405316;28;20111;-50
2023/04/05 16:20:02;;;;;;;10.90;7.30;;;;;;;6.94;49.19;97420.31;10428899;28;20063;-52
2023/04/05 16:25:01;;;;;;;11.30;7.25;;;;;;;6.55;49.95;97422.56;10409480;28;20120;-52
2023/04/05 16:30:00;;;;;;;11.15;7.90;;;;;;;6.36;48.92;97429.25;10399687;28;20040;-51
2023/04/05 16:34:59;;;;;;;10.43;8.35;;;;;;;6.24;50.82;97430.84;10398560;28;20040;-50
2023/04/05 16:39:58;;;;;;;12.93;9.50;;;;;;;6.03;50.67;97436.63;10404598;28;20116;-52
2023/04/05 16:44:57;;;;;;;12.30;9.00;;;;;;;5.87;50.59;97431.25;10393253;28;20112;-51
2023/04/05 16:49:56;;;;;;;12.05;8.73;;;;;;;5.61;51.08;97422.34;10399238;28;20027;-51
2023/04/05 16:54:56;;;;;;;12.10;9.10;;;;;;;5.42;51.26;97429.81;10400748;28;20428;-50
2023/04/05 16:59:55;;;;;;;13.45;10.02;;;;;;;5.24;51.82;97437.28;10399518;28;20140;-52
2023/04/05 17:04:54;;;;;;;13.80;10.00;;;;;;;5.00;51.94;97451.50;10402929;28;20032;-50
2023/04/05 17:09:53;;;;;;;11.57;8.90;;;;;;;4.87;52.18;97452.09;10396468;28;20029;-51
2023/04/05 17:14:52;;;;;;;12.57;8.75;;;;;;;4.60;52.14;97455.94;10397202;28;20032;-52
2023/04/05 17:19:52;;;;;;;15.27;10.23;;;;;;;4.54;53.03;97460.09;10400342;28;20555;-51
2023/04/05 17:24:51;;;;;;;16.42;10.88;;;;;;;4.39;53.01;97463.25;10401548;28;20115;-49
2023/04/05 17:29:50;;;;;;;12.90;9.20;;;;;;;4.20;53.19;97470.59;10399570;28;20036;-51
2023/04/05 17:34:49;;;;;;;11.57;8.75;;;;;;;4.07;53.23;97473.75;10400917;28;20047;-50
2023/04/05 17:39:48;;;;;;;17.17;10.38;;;;;;;3.77;53.91;97444.06;10399501;28;20040;-51
2023/04/05 17:44:47;;;;;;;11.13;8.10;;;;;;;3.91;54.59;97485.41;10399859;28;20040;-52
2023/04/05 17:49:45;;;;;;;14.32;9.15;;;;;;;3.77;54.31;97485.13;10400663;28;20047;-51
2023/04/05 17:54:44;;;;;;;11.98;8.55;;;;;;;3.76;54.10;97491.09;10400269;28;20043;-50
2023/04/05 17:59:43;;;;;;;13.60;8.98;;;;;;;3.38;54.23;97433.84;10399610;28;20044;-51
2023/04/05 18:04:43;;;;;;;11.85;8.40;;;;;;;3.55;54.77;97491.50;10405953;28;20441;-50
2023/04/05 18:09:42;;;;;;;;;;;;;;;3.61;54.53;97501.00;10389535;28;20072;-51
2023/04/05 18:14:41;;;;;;;12.75;9.27;;;;;;;3.60;54.95;97507.00;10407018;28;19991;-51
2023/04/05 18:19:40;;;;;;;12.95;9.23;;;;;;;3.51;55.11;97501.66;10406986;28;20060;-52
2023/04/05 18:24:39;;;;;;;12.48;8.55;;;;;;;3.47;55.08;97510.09;10407061;28;20068;-52
2023/04/05 18:29:38;;;;;;;13.05;9.18;;;;;;;3.53;54.98;97507.69;10405851;28;20070;-52
2023/04/05 18:34:37;;;;;;;13.82;8.88;;;;;;;3.51;55.27;97519.59;10421532;28;20071;-49
2023/04/05 18:39:36;;;;;;;13.23;9.38;;;;;;;3.39;55.56;97489.41;10406246;28;20055;-52
2023/04/05 18:44:35;;;;;;;14.68;10.15;;;;;;;3.60;55.22;97519.81;10405739;28;20025;-50
2023/04/05 18:49:35;;;;;;;13.25;9.05;;;;;;;3.60;55.23;97523.25;10406088;28;20028;-50
2023/04/05 18:54:35;;;;;;;11.98;8.75;;;;;;;3.60;55.50;97512.13;10404857;28;20056;-49
2023/04/05 18:59:34;;;;;;;11.68;7.70;;;;;;;3.73;55.18;97520.94;10409625;28;20606;-51
2023/04/05 19:04:33;;;;;;;;;;;;;;;3.80;55.37;97531.41;10406599;28;20108;-52
2023/04/05 19:09:32;;;;;;;12.15;8.63;;;;;;;3.98;54.30;97520.66;10418658;28;19912;-52
2023/04/05 19:14:31;;;;;;;13.57;9.88;;;;;;;4.04;54.59;97514.78;10430480;28;20071;-50
2023/04/05 19:19:30;;;;;;;13.55;9.18;;;;;;;4.05;54.66;97508.81;10408552;28;20060;-52
2023/04/05 19:24:29;;;;;;;11.90;9.02;;;;;;;4.06;54.82;97503.72;10405015;28;20025;-50
2023/04/05 19:29:28;;;;;;;14.43;9.38;;;;;;;4.13;54.34;97512.41;10402827;28;20048;-50
2023/04/05 19:34:27;;;;;;;12.40;9.07;;;;;;;4.08;54.67;97519.16;10406129;28;20033;-49
2023/04/05 19:39:26;;;;;;;12.88;9.18;;;;;;;4.15;54.52;97515.88;10406067;28;20036;-51
2023/04/05 19:44:48;;;;;;;11.82;8.75;;;;;;;4.20;54.73;97514.25;10406969;28;20056;-50
2023/04/05 19:49:49;;;;;;;11.75;8.65;;;;;;;4.27;55.00;97513.56;10404460;28;20072;-51
2023/04/05 19:54:48;;;;;;;11.60;8.57;;;;;;;4.37;54.73;97499.19;10405627;28;20471;-52
2023/04/05 19:59:47;;;;;;;12.73;9.13;;;;;;;4.34;53.95;97501.69;10394729;28;20094;-52
2023/04/05 20:04:47;;;;;;;13.40;10.07;;;;;;;4.33;54.46;97506.78;10405934;28;20017;-50
2023/04/05 20:09:46;;;;;;;17.75;10.50;;;;;;;4.44;55.04;97498.47;10405447;28;20056;-51
2023/04/05 20:14:46;;;;;;;13.88;9.15;;;;;;;4.46;55.04;97501.06;10406217;28;20060;-50
2023/04/05 20:19:56;;;;;;;13.18;8.50;;;;;;;4.44;54.72;97489.88;10413452;28;20115;-50
2023/04/05 20:24:55;;;;;;;;;;;;;;;4.37;54.74;97495.75;10431171;28;20150;-52
2023/04/05 20:29:54;;;;;;;12.60;8.70;;;;;;;4.25;55.10;97492.09;10406160;28;19924;-51
2023/04/05 20:34:53;;;;;;;12.35;8.68;;;;;;;4.15;55.02;97504.72;10403927;28;20056;-52
2023/04/05 20:39:53;;;;;;;13.35;9.13;;;;;;;4.06;55.30;97502.84;10402521;28;20017;-50
2023/04/05 20:44:52;;;;;;;13.68;9.85;;;;;;;3.95;55.17;97506.88;10402361;28;20071;-49
2023/04/05 20:49:51;;;;;;;13.60;8.80;;;;;;;3.70;55.44;97502.91;10402081;28;20033;-50
2023/04/05 20:54:51;;;;;;;12.65;9.02;;;;;;;3.59;55.75;97502.72;10402688;28;20035;-49
2023/04/05 20:59:50;;;;;;;12.85;9.50;;;;;;;3.49;56.09;97495.63;10401785;28;20127;-51
2023/04/05 21:04:49;;;;;;;13.63;9.80;;;;;;;3.29;56.29;97474.66;10400357;28;20139;-49
2023/04/05 21:09:48;;;;;;;13.30;9.25;;;;;;;2.97;56.70;97439.72;10401574;28;20132;-51
2023/04/05 21:14:47;;;;;;;12.73;9.43;;;;;;;3.10;56.78;97489.59;10398159;28;20029;-51
2023/04/05 21:19:46;;;;;;;12.40;9.27;;;;;;;3.00;57.14;97492.75;10401406;28;20052;-51
2023/04/05 21:24:45;;;;;;;15.23;9.90;;;;;;;2.76;57.34;97460.56;10401863;28;20021;-51
2023/04/05 21:29:44;;;;;;;18.55;11.07;;;;;;;2.79;57.64;97485.41;10401629;28;20044;-51
2023/04/05 21:34:43;;;;;;;25.52;16.30;;;;;;;2.80;58.28;97500.81;10401724;28;20064;-50
2023/04/05 21:39:42;;;;;;;18.33;11.45;;;;;;;2.65;58.01;97486.75;10405663;28;20064;-50
2023/04/05 21:44:41;;;;;;;15.07;10.55;;;;;;;2.61;58.48;97497.78;10409060;28;20032;-51
2023/04/05 21:49:40;;;;;;;18.85;13.50;;;;;;;2.55;58.65;97496.75;10408585;28;20040;-50
2023/04/05 21:54:39;;;;;;;;;;;;;;;2.52;59.15;97500.94;10410292;28;20111;-52
2023/04/05 21:59:38;;;;;;;17.55;11.60;;;;;;;2.13;59.89;97447.84;10408724;28;20012;-49
2023/04/05 22:04:38;;;;;;;;;;;;;;;2.31;59.51;97489.28;10415606;28;20147;-51
2023/04/05 22:09:37;;;;;;;14.27;10.17;;;;;;;2.34;59.87;97480.81;10440205;28;19963;-50
2023/04/05 22:14:36;;;;;;;16.35;11.05;;;;;;;2.27;60.69;97484.91;10406765;28;20350;-51
2023/04/05 22:19:35;;;;;;;15.00;10.60;;;;;;;2.20;60.70;97487.28;10401820;28;20040;-50
2023/04/05 22:24:34;;;;;;;15.57;10.82;;;;;;;2.16;61.27;97484.63;10403181;28;20155;-50
2023/04/05 22:29:33;;;;;;;14.65;9.48;;;;;;;2.14;61.07;97493.97;10401915;28;20050;-50
2023/04/05 22:34:32;;;;;;;15.32;9.73;;;;;;;1.78;60.52;97450.28;10406534;28;20064;-49
2023/04/05 22:39:31;;;;;;;14.32;9.93;;;;;;;1.99;61.50;97479.88;10410534;28;20082;-51
2023/04/05 22:44:30;;;;;;;13.98;9.75;;;;;;;2.01;60.80;97481.63;10408178;28;20069;-51
2023/04/05 22:49:29;;;;;;;14.80;10.60;;;;;;;2.04;60.42;97476.59;10412297;28;20040;-50
2023/04/05 22:54:28;;;;;;;15.02;10.65;;;;;;;2.01;60.87;97476.53;10411763;28;20067;-51
2023/04/05 22:59:27;;;;;;;17.13;10.98;;;;;;;1.98;60.59;97476.44;10414497;28;20020;-51
2023/04/05 23:04:26;;;;;;;16.00;10.25;;;;;;;1.98;60.88;97471.31;10413842;28;20036;-50
2023/04/05 23:09:26;;;;;;;14.88;9.50;;;;;;;2.00;60.61;97466.22;10412166;28;20047;-49
2023/04/05 23:14:25;;;;;;;13.85;9.32;;;;;;;1.96;60.64;97465.28;10413360;28;20063;-51
2023/04/05 23:19:25;;;;;;;15.70;10.02;;;;;;;1.99;60.49;97454.28;10412047;28;20067;-49